Time;durP1;ratioP1;P1;durP2;ratioP2;P2;SDS_P1;SDS_P2;PMS_P1;PMS_P2;Temp;Humidity;BMP_temperature;BMP_pressure;BME280_temperature;BME280_humidity;BME280_pressure;Samples;Min_cycle;Max_cycle;Signal;HPM_P1;HPM_P2
2021/12/19 00:00:46;;;;;;;37.97;31.23;;;5.40;52.50;;;;;;20436;6814;279664;-82
2021/12/19 00:09:17;;;;;;;35.67;25.63;;;5.40;52.60;;;;;;20561;6841;117813;-82
2021/12/19 00:11:55;;;;;;;35.38;29.00;;;5.20;52.80;;;;;;20374;6841;335651;-82
2021/12/19 00:14:32;;;;;;;32.17;24.80;;;5.30;53.10;;;;;;20522;6835;117111;-82
2021/12/19 00:17:10;;;;;;;34.63;28.93;;;5.30;52.80;;;;;;20448;6808;311341;-82
2021/12/19 00:19:48;;;;;;;31.27;27.40;;;5.50;53.00;;;;;;20485;6806;298038;-83
2021/12/19 00:22:26;;;;;;;36.73;25.73;;;5.90;52.50;;;;;;20686;6806;118564;-82
2021/12/19 00:25:03;;;;;;;32.30;24.00;;;5.80;52.20;;;;;;20572;6806;189380;-82
2021/12/19 00:27:41;;;;;;;32.33;23.97;;;5.60;52.70;;;;;;20634;6823;116794;-82
2021/12/19 00:30:19;;;;;;;33.40;23.13;;;5.40;53.00;;;;;;20639;6835;120988;-83
2021/12/19 00:32:56;;;;;;;31.10;23.33;;;5.20;53.40;;;;;;20564;6841;120730;-82
2021/12/19 00:35:39;;;;;;;36.40;28.87;;;5.10;53.60;;;;;;20246;6837;286502;-82
2021/12/19 00:38:12;;;;;;;34.00;25.53;;;5.30;53.60;;;;;;20594;6836;118237;-83
2021/12/19 00:40:49;;;;;;;33.37;23.83;;;5.30;53.20;;;;;;20567;6834;119960;-82
2021/12/19 00:43:45;;;;;;;32.40;22.77;;;5.20;53.40;;;;;;20581;6826;283030;-83
2021/12/19 00:46:15;;;;;;;29.17;21.33;;;5.10;53.60;;;;;;20575;6842;118567;-82
2021/12/19 00:48:53;;;;;;;30.90;23.40;;;4.90;53.80;;;;;;20661;6809;119205;-82
2021/12/19 00:51:30;;;;;;;37.50;30.70;;;4.80;54.10;;;;;;20394;6832;311583;-82
2021/12/19 00:54:10;;;;;;;31.50;24.27;;;5.10;54.10;;;;;;20614;6814;117770;-83
2021/12/19 00:56:50;;;;;;;31.23;23.87;;;5.10;53.90;;;;;;20617;6824;119219;-84
2021/12/19 00:59:27;;;;;;;33.30;23.03;;;5.10;53.90;;;;;;20617;6827;121171;-83
2021/12/19 01:02:05;;;;;;;32.20;23.83;;;4.90;54.00;;;;;;20624;6827;117835;-83
2021/12/19 01:04:43;;;;;;;28.80;21.23;;;4.80;54.20;;;;;;20587;6808;117538;-83
2021/12/19 01:07:20;;;;;;;32.95;27.25;;;4.80;54.60;;;;;;20438;6820;291201;-83
2021/12/19 01:09:58;;;;;;;29.77;23.53;;;5.00;54.50;;;;;;20666;6808;119732;-82
2021/12/19 01:12:38;;;;;;;32.43;22.83;;;5.10;54.10;;;;;;20540;6843;118589;-82
2021/12/19 01:15:14;;;;;;;29.97;22.07;;;5.00;54.20;;;;;;20496;6824;118857;-83
2021/12/19 01:17:51;;;;;;;27.90;20.40;;;4.90;54.40;;;;;;20608;6824;117693;-82
2021/12/19 01:20:29;;;;;;;32.13;26.93;;;4.80;54.60;;;;;;20460;6812;278815;-82
2021/12/19 01:23:07;;;;;;;28.53;22.30;;;5.00;54.70;;;;;;20616;6826;120116;-82
2021/12/19 01:25:44;;;;;;;26.67;19.80;;;5.10;54.30;;;;;;20530;6825;120422;-82
2021/12/19 01:28:22;;;;;;;33.55;27.48;;;5.00;54.40;;;;;;20399;6828;343446;-82
2021/12/19 01:31:00;;;;;;;31.77;28.10;;;5.20;54.20;;;;;;20386;6826;311418;-82
2021/12/19 01:33:37;;;;;;;34.73;29.10;;;5.50;53.50;;;;;;20398;6828;319381;-83
2021/12/19 01:36:18;;;;;;;30.60;22.47;;;5.70;52.60;;;;;;20631;6825;118549;-85
2021/12/19 01:38:54;;;;;;;31.70;27.27;;;5.70;52.60;;;;;;20374;6827;339622;-86
2021/12/19 01:41:32;;;;;;;32.47;27.70;;;5.70;52.70;;;;;;20478;6808;307758;-83
2021/12/19 01:44:09;;;;;;;31.63;28.23;;;6.00;52.50;;;;;;20479;6808;309394;-83
2021/12/19 01:46:47;;;;;;;32.70;29.20;;;6.20;51.70;;;;;;20541;6794;278876;-83
2021/12/19 01:49:25;;;;;;;33.13;29.40;;;6.30;51.20;;;;;;20449;6812;278572;-82
2021/12/19 01:52:02;;;;;;;35.87;31.97;;;6.40;50.90;;;;;;20462;6808;309266;-83
2021/12/19 01:54:40;;;;;;;31.13;25.10;;;6.50;50.60;;;;;;20569;6808;122195;-82
2021/12/19 01:57:22;;;;;;;30.57;23.40;;;6.20;51.00;;;;;;20679;6808;119132;-82
2021/12/19 01:59:56;;;;;;;30.27;23.87;;;5.80;51.70;;;;;;20684;6808;117993;-82
2021/12/19 02:02:34;;;;;;;28.00;22.60;;;5.50;52.50;;;;;;20688;6808;118235;-82
2021/12/19 02:05:12;;;;;;;30.63;24.37;;;5.20;52.90;;;;;;20552;6808;119655;-82
2021/12/19 02:07:54;;;;;;;33.30;29.80;;;5.00;53.40;;;;;;20504;6795;302945;-82
2021/12/19 02:10:27;;;;;;;34.30;30.10;;;5.20;53.70;;;;;;20440;6812;308712;-82
2021/12/19 02:13:09;;;;;;;31.23;25.17;;;5.60;53.00;;;;;;20567;6838;119426;-83
2021/12/19 02:15:43;;;;;;;28.67;23.03;;;5.60;52.80;;;;;;20440;6841;119590;-82
2021/12/19 02:18:21;;;;;;;34.05;30.35;;;5.40;53.10;;;;;;20420;6827;343668;-83
2021/12/19 02:20:58;;;;;;;34.23;30.53;;;5.50;53.00;;;;;;20394;6825;281952;-82
2021/12/19 02:23:36;;;;;;;30.47;25.70;;;5.90;52.60;;;;;;20646;6817;117897;-82
2021/12/19 02:26:18;;;;;;;32.67;25.57;;;5.80;52.40;;;;;;20631;6823;117535;-82
2021/12/19 02:28:55;;;;;;;32.50;24.67;;;5.50;52.70;;;;;;20604;6825;152375;-82
2021/12/19 02:31:33;;;;;;;30.30;23.20;;;5.30;53.20;;;;;;20652;6812;118871;-82
2021/12/19 02:34:19;;;;;;;31.23;23.33;;;5.10;53.50;;;;;;20679;6809;117289;-82
2021/12/19 02:37:05;;;;;;;26.57;21.40;;;4.90;53.90;;;;;;20634;6825;150544;-82
2021/12/19 02:48:17;;;;;;;36.57;29.23;;;5.40;53.10;;;;;;20495;6798;310933;-82
2021/12/19 02:50:55;;;;;;;32.57;28.80;;;5.50;53.30;;;;;;20473;6793;279258;-83
2021/12/19 02:53:32;;;;;;;35.80;29.97;;;5.80;52.90;;;;;;20465;6810;281211;-85
2021/12/19 02:56:11;;;;;;;37.10;31.03;;;6.00;52.20;;;;;;20516;6805;280079;-83
2021/12/19 02:58:48;;;;;;;30.77;22.63;;;6.20;51.50;;;;;;20696;6791;121937;-82
2021/12/19 03:01:26;;;;;;;31.40;22.97;;;5.90;51.50;;;;;;20734;6791;117118;-82
2021/12/19 03:04:06;;;;;;;32.10;23.67;;;5.60;52.30;;;;;;20696;6791;116482;-85
2021/12/19 03:06:45;;;;;;;31.97;25.30;;;5.30;53.00;;;;;;20659;6791;278255;-85
2021/12/19 03:12:47;;;;;;;36.60;25.50;;;5.40;53.40;;;;;;20058;6851;122189;-85
2021/12/19 03:18:10;;;;;;;38.37;24.17;;;5.10;53.30;;;;;;20725;6809;123857;-85
2021/12/19 03:20:47;;;;;;;33.50;23.90;;;4.90;53.80;;;;;;20731;6802;121996;-85
2021/12/19 03:23:25;;;;;;;33.83;22.50;;;4.70;54.20;;;;;;20742;6803;118004;-85
2021/12/19 03:26:03;;;;;;;39.63;31.33;;;4.60;54.50;;;;;;20372;6855;308455;-85
2021/12/19 03:28:45;;;;;;;34.33;24.90;;;4.80;54.70;;;;;;20697;6820;117305;-85
2021/12/19 03:31:18;;;;;;;37.93;24.60;;;4.90;54.30;;;;;;20696;6818;120013;-85
2021/12/19 03:33:56;;;;;;;42.37;24.93;;;4.80;54.60;;;;;;20732;6799;116997;-85
2021/12/19 03:36:34;;;;;;;43.03;30.53;;;4.60;54.80;;;;;;20471;6812;312569;-85
2021/12/19 03:39:25;;;;;;;37.53;26.90;;;4.80;54.80;;;;;;20687;6820;119369;-85
2021/12/19 03:41:54;;;;;;;41.83;31.43;;;4.90;54.60;;;;;;20523;6820;337336;-85
2021/12/19 03:44:34;;;;;;;55.70;33.13;;;5.10;54.60;;;;;;20403;6833;310733;-85
2021/12/19 03:47:08;;;;;;;40.50;27.37;;;5.50;53.70;;;;;;20746;6804;120625;-85
2021/12/19 03:49:46;;;;;;;39.67;25.17;;;5.40;53.30;;;;;;20764;6793;117522;-86
2021/12/19 03:52:23;;;;;;;50.67;32.23;;;5.10;53.70;;;;;;20495;6816;324224;-85
2021/12/19 03:55:01;;;;;;;56.30;33.87;;;5.20;54.00;;;;;;20380;6816;285992;-85
2021/12/19 03:57:39;;;;;;;49.20;26.97;;;5.50;53.40;;;;;;20739;6807;121094;-85
2021/12/19 04:00:17;;;;;;;47.57;24.60;;;5.40;53.20;;;;;;20678;6824;116612;-85
2021/12/19 04:02:55;;;;;;;53.70;23.20;;;5.10;53.70;;;;;;20673;6827;117138;-85
2021/12/19 04:05:33;;;;;;;63.53;23.63;;;4.70;54.10;;;;;;20580;6821;118178;-86
2021/12/19 04:08:11;;;;;;;59.87;32.70;;;4.70;54.60;;;;;;20565;6809;281908;-84
2021/12/19 04:10:49;;;;;;;78.57;26.37;;;4.80;54.80;;;;;;20757;6809;117344;-85
2021/12/19 04:13:29;;;;;;;94.68;33.13;;;4.90;54.40;;;;;;20479;6824;334630;-85
2021/12/19 04:16:04;;;;;;;53.07;25.63;;;5.00;54.40;;;;;;20480;6900;117187;-85
2021/12/19 04:18:42;;;;;;;48.33;25.40;;;5.00;54.20;;;;;;20686;6826;117656;-85
2021/12/19 04:21:20;;;;;;;52.17;25.10;;;4.80;54.60;;;;;;20684;6827;118664;-85
2021/12/19 04:23:57;;;;;;;62.60;31.80;;;4.60;55.00;;;;;;20470;6820;311364;-85
2021/12/19 04:26:35;;;;;;;44.67;27.70;;;4.80;55.10;;;;;;20732;6806;117523;-85
2021/12/19 04:29:13;;;;;;;74.17;25.30;;;4.80;54.80;;;;;;20767;6793;120389;-85
2021/12/19 04:31:50;;;;;;;69.50;31.97;;;4.70;54.90;;;;;;20560;6790;292987;-85
2021/12/19 04:34:28;;;;;;;84.77;32.87;;;4.80;55.00;;;;;;20473;6805;278904;-85
2021/12/19 04:37:25;;;;;;;66.37;25.87;;;5.20;54.20;;;;;;20716;6805;118020;-85
2021/12/19 04:40:01;;;;;;;68.37;25.00;;;5.10;53.90;;;;;;20695;6867;118256;-85
2021/12/19 04:52:45;;;;;;;79.13;30.73;;;4.30;55.60;;;;;;20537;6804;279626;-84
2021/12/19 04:56:45;;;;;;;95.20;25.60;;;4.90;54.80;;;;;;20745;6827;119408;-84
2021/12/19 04:59:35;;;;;;;75.20;25.53;;;4.90;54.40;;;;;;20728;6808;126677;-85
2021/12/19 05:16:20;;;;;;;126.47;26.60;;;4.60;55.00;;;;;;20605;6838;118122;-82
2021/12/19 05:19:04;;;;;;;127.33;23.73;;;4.30;55.40;;;;;;20552;6835;150764;-82
2021/12/19 05:21:38;;;;;;;165.13;24.53;;;4.20;55.90;;;;;;20629;6818;117144;-82
2021/12/19 05:27:09;;;;;;;145.23;23.93;;;4.00;56.50;;;;;;20586;6823;120828;-82
2021/12/19 05:29:47;;;;;;;256.43;25.63;;;3.90;56.70;;;;;;20592;6827;117869;-82
2021/12/19 05:32:25;;;;;;;64.67;21.43;;;3.80;57.00;;;;;;20530;6860;117690;-82
2021/12/19 05:35:02;;;;;;;52.43;22.53;;;3.70;57.00;;;;;;20588;6825;129957;-82
2021/12/19 05:46:32;;;;;;;242.00;27.83;;;4.00;57.40;;;;;;20669;6812;118245;-83
2021/12/19 05:49:09;;;;;;;105.27;21.60;;;4.10;56.70;;;;;;20694;6812;122393;-82
2021/12/19 05:51:47;;;;;;;137.87;21.03;;;4.00;56.80;;;;;;20637;6827;118174;-83
2021/12/19 05:54:25;;;;;;;233.27;31.30;;;3.90;57.00;;;;;;20410;6812;310926;-85
2021/12/19 05:57:03;;;;;;;221.17;33.53;;;4.10;57.00;;;;;;20434;6810;280318;-83
2021/12/19 05:59:41;;;;;;;151.33;25.93;;;4.50;56.30;;;;;;20720;6803;118337;-83
2021/12/19 06:02:19;;;;;;;230.67;32.67;;;4.50;55.90;;;;;;20428;6819;323136;-85
2021/12/19 06:04:56;;;;;;;209.33;32.07;;;4.60;56.10;;;;;;20297;6824;281185;-84
2021/12/19 06:07:35;;;;;;;116.63;30.50;;;4.90;55.40;;;;;;20445;6819;309067;-82
2021/12/19 06:10:13;;;;;;;362.67;31.07;;;5.20;54.80;;;;;;20740;6789;124437;-82
2021/12/19 06:12:51;;;;;;;322.47;29.83;;;5.00;54.60;;;;;;20589;6822;122962;-83
2021/12/19 06:16:15;;;;;;;111.20;30.20;;;4.70;55.20;;;;;;20357;6809;295350;-82
2021/12/19 06:18:52;;;;;;;50.50;23.60;;;4.80;55.70;;;;;;20719;6790;120187;-82
2021/12/19 06:21:30;;;;;;;214.13;26.97;;;4.70;55.60;;;;;;20739;6790;120258;-82
2021/12/19 06:24:08;;;;;;;213.83;24.93;;;4.50;56.10;;;;;;20727;6790;117312;-83
2021/12/19 06:26:46;;;;;;;167.83;27.10;;;4.20;56.70;;;;;;20705;6801;124500;-82
2021/12/19 06:29:24;;;;;;;86.47;29.80;;;4.20;56.70;;;;;;20451;6808;309106;-82
2021/12/19 06:32:02;;;;;;;107.87;25.90;;;4.40;56.50;;;;;;20669;6807;117889;-82
2021/12/19 06:34:39;;;;;;;190.23;25.93;;;4.40;56.00;;;;;;20653;6809;120039;-83
2021/12/19 06:37:18;;;;;;;41.57;20.93;;;4.10;56.50;;;;;;20674;6810;121841;-84
2021/12/19 06:39:56;;;;;;;167.03;27.27;;;4.10;56.50;;;;;;20672;6822;117664;-82
2021/12/19 06:42:34;;;;;;;111.00;23.57;;;4.00;56.80;;;;;;20663;6814;118232;-82
2021/12/19 06:45:11;;;;;;;55.80;27.93;;;3.90;56.90;;;;;;20275;6828;310776;-82
2021/12/19 06:47:49;;;;;;;128.73;26.13;;;4.20;56.70;;;;;;20726;6789;119224;-82
2021/12/19 06:50:31;;;;;;;52.20;21.17;;;4.30;56.00;;;;;;20635;6819;118224;-82
2021/12/19 06:53:04;;;;;;;88.03;23.33;;;4.10;56.00;;;;;;20645;6823;120022;-83
2021/12/19 06:55:42;;;;;;;65.53;29.87;;;3.90;56.40;;;;;;20247;6824;313148;-82
2021/12/19 06:58:21;;;;;;;79.63;29.40;;;4.10;56.50;;;;;;20461;6817;282242;-82
2021/12/19 07:00:59;;;;;;;73.07;30.63;;;4.60;55.50;;;;;;20394;6821;308574;-82
2021/12/19 07:03:34;;;;;;;52.33;24.90;;;4.90;54.50;;;;;;20732;6798;117574;-84
2021/12/19 07:06:12;;;;;;;51.17;24.10;;;4.90;54.30;;;;;;20690;6822;116764;-84
2021/12/19 07:08:51;;;;;;;47.30;22.33;;;4.40;55.30;;;;;;20701;6808;122374;-84
2021/12/19 07:11:28;;;;;;;59.57;24.13;;;4.40;55.30;;;;;;20717;6808;118004;-83
2021/12/19 07:14:05;;;;;;;68.90;22.10;;;4.20;55.70;;;;;;20680;6808;117018;-83
2021/12/19 07:16:43;;;;;;;105.97;22.13;;;4.10;56.10;;;;;;20693;6816;117808;-84
2021/12/19 07:19:20;;;;;;;88.80;22.37;;;4.00;56.30;;;;;;20616;6823;120550;-84
2021/12/19 07:21:58;;;;;;;72.07;27.17;;;3.90;56.50;;;;;;20389;6823;310782;-84
2021/12/19 07:24:36;;;;;;;141.23;28.70;;;4.20;56.70;;;;;;20338;6827;282766;-83
2021/12/19 07:27:14;;;;;;;135.10;27.63;;;4.60;55.90;;;;;;20415;6820;282482;-85
2021/12/19 07:29:55;;;;;;;75.63;25.47;;;4.90;54.90;;;;;;20438;6824;280078;-84
2021/12/19 07:32:30;;;;;;;75.60;22.07;;;5.20;54.10;;;;;;20653;6832;124610;-84
2021/12/19 07:35:09;;;;;;;171.20;25.33;;;5.00;54.00;;;;;;20402;6804;309847;-85
2021/12/19 07:37:46;;;;;;;88.47;19.20;;;5.10;54.20;;;;;;20781;6786;119993;-85
2021/12/19 07:40:24;;;;;;;143.97;19.50;;;4.90;54.30;;;;;;20792;6786;116961;-84
2021/12/19 07:43:02;;;;;;;69.83;22.07;;;4.70;54.80;;;;;;20547;6785;285972;-85
2021/12/19 07:45:38;;;;;;;133.93;19.40;;;4.80;54.70;;;;;;20568;6803;116811;-84
2021/12/19 07:48:15;;;;;;;172.50;19.87;;;4.70;54.40;;;;;;20682;6797;117999;-85
2021/12/19 07:50:54;;;;;;;88.30;18.17;;;4.50;54.90;;;;;;20760;6782;119220;-84
2021/12/19 07:53:31;;;;;;;100.23;24.10;;;4.30;55.30;;;;;;20556;6782;319814;-84
2021/12/19 07:56:10;;;;;;;64.40;18.67;;;4.50;55.60;;;;;;20812;6782;119348;-83
2021/12/19 07:58:48;;;;;;;113.23;24.53;;;4.50;55.20;;;;;;20572;6782;306756;-83
2021/12/19 08:01:26;;;;;;;142.23;23.90;;;4.70;55.10;;;;;;20588;6782;279711;-84
2021/12/19 08:04:04;;;;;;;129.83;24.80;;;5.00;54.30;;;;;;20550;6782;309406;-85
2021/12/19 08:06:41;;;;;;;159.73;20.80;;;5.20;53.50;;;;;;20721;6797;117326;-85
2021/12/19 08:09:35;;;;;;;154.67;19.97;;;5.10;53.50;;;;;;20768;6797;118037;-85
2021/12/19 08:12:00;;;;;;;85.80;19.63;;;4.70;54.10;;;;;;20816;6782;116779;-85
2021/12/19 08:14:37;;;;;;;168.70;19.30;;;4.50;54.80;;;;;;20589;6803;118263;-85
2021/12/19 08:17:17;;;;;;;159.13;18.10;;;4.30;55.30;;;;;;20764;6799;115648;-86
2021/12/19 08:19:53;;;;;;;98.87;19.80;;;4.10;55.70;;;;;;20712;6814;117880;-86
2021/12/19 08:22:32;;;;;;;59.27;15.93;;;4.00;56.00;;;;;;20685;6814;118314;-87
2021/12/19 08:25:09;;;;;;;85.23;21.20;;;3.90;56.20;;;;;;20348;6814;281521;-86
2021/12/19 08:27:48;;;;;;;130.33;19.40;;;4.20;55.90;;;;;;20731;6799;119839;-87
2021/12/19 08:30:27;;;;;;;129.17;23.30;;;4.20;55.90;;;;;;20510;6799;309760;-87
2021/12/19 08:33:03;;;;;;;132.67;18.77;;;4.40;56.00;;;;;;20663;6820;122209;-87
2021/12/19 08:35:41;;;;;;;154.77;19.47;;;4.40;55.60;;;;;;20577;6813;117636;-86
2021/12/19 08:38:19;;;;;;;175.60;18.10;;;4.30;55.80;;;;;;20705;6798;117750;-88
2021/12/19 08:40:58;;;;;;;247.37;19.93;;;4.10;56.10;;;;;;20662;6813;117871;-87
2021/12/19 08:43:34;;;;;;;328.10;22.53;;;4.00;56.40;;;;;;20678;6813;121187;-89
2021/12/19 08:46:12;;;;;;;286.47;26.87;;;3.90;56.70;;;;;;20424;6828;280373;-87
2021/12/19 08:48:49;;;;;;;126.77;23.07;;;4.10;56.60;;;;;;20443;6816;278252;-87
2021/12/19 08:51:27;;;;;;;179.00;23.50;;;4.50;55.70;;;;;;20398;6840;294642;-88
2021/12/19 08:54:05;;;;;;;240.53;22.03;;;4.80;55.00;;;;;;20646;6818;116882;-87
2021/12/19 08:56:43;;;;;;;283.43;20.03;;;4.80;54.80;;;;;;20716;6803;118079;-87
2021/12/19 08:59:21;;;;;;;306.07;22.03;;;4.60;55.40;;;;;;20738;6794;118245;-87
2021/12/19 09:02:01;;;;;;;82.67;17.53;;;4.40;55.70;;;;;;20739;6791;123883;-87
2021/12/19 09:04:37;;;;;;;267.30;22.13;;;4.20;56.20;;;;;;20585;6816;118211;-86
2021/12/19 09:07:18;;;;;;;60.77;14.00;;;4.10;56.50;;;;;;20710;6799;118135;-88
2021/12/19 09:09:52;;;;;;;129.53;17.03;;;4.00;56.70;;;;;;20699;6799;117107;-88
2021/12/19 09:12:30;;;;;;;311.60;21.47;;;3.90;56.90;;;;;;20739;6805;118284;-87
2021/12/19 09:15:06;;;;;;;182.03;23.90;;;3.80;56.90;;;;;;20327;6820;314345;-87
2021/12/19 09:17:44;;;;;;;64.20;29.80;;;4.10;56.60;;;;;;20667;6824;117632;-86
2021/12/19 09:20:22;;;;;;;91.20;34.67;;;4.10;56.20;;;;;;20616;6837;117339;-87
2021/12/19 09:23:00;;;;;;;59.37;22.70;;;4.10;56.20;;;;;;20572;6817;120872;-88
2021/12/19 09:25:37;;;;;;;83.40;23.53;;;3.90;56.50;;;;;;20580;6817;120534;-87
2021/12/19 09:28:15;;;;;;;63.00;16.70;;;3.90;57.00;;;;;;20697;6835;119041;-88
2021/12/19 09:30:53;;;;;;;102.77;17.13;;;3.80;57.20;;;;;;20708;6801;121297;-87
2021/12/19 09:33:30;;;;;;;99.87;22.97;;;3.80;57.40;;;;;;20487;6824;310535;-88
2021/12/19 09:36:09;;;;;;;45.70;16.77;;;4.20;56.90;;;;;;20729;6812;118269;-86
2021/12/19 09:38:48;;;;;;;152.17;23.50;;;4.20;56.70;;;;;;20457;6814;312216;-86
2021/12/19 09:41:29;;;;;;;142.17;19.20;;;4.50;56.30;;;;;;20641;6818;118735;-87
2021/12/19 09:44:05;;;;;;;181.93;22.03;;;4.50;55.70;;;;;;20636;6815;118499;-87
2021/12/19 09:46:42;;;;;;;174.13;28.20;;;4.40;55.90;;;;;;20714;6811;117914;-87
2021/12/19 09:49:20;;;;;;;69.97;17.47;;;4.20;56.10;;;;;;20698;6827;122463;-85
2021/12/19 09:51:57;;;;;;;57.30;13.23;;;4.10;56.30;;;;;;20756;6808;117134;-83
2021/12/19 09:54:36;;;;;;;17.23;10.60;;;4.00;56.90;;;;;;20688;6808;117640;-87
2021/12/19 09:57:14;;;;;;;18.67;11.80;;;4.00;58.00;;;;;;20687;6799;119682;-88
2021/12/19 09:59:51;;;;;;;43.07;13.70;;;4.20;58.90;;;;;;20669;6806;117669;-87
2021/12/19 10:02:29;;;;;;;31.40;14.93;;;4.40;58.70;;;;;;20515;6791;280769;-83
2021/12/19 10:05:23;;;;;;;28.33;15.40;;;4.90;58.20;;;;;;20377;6806;281789;-86
2021/12/19 10:08:03;;;;;;;40.80;15.63;;;5.50;56.60;;;;;;20548;6791;282269;-85
2021/12/19 10:10:52;;;;;;;37.00;15.30;;;6.00;55.30;;;;;;20536;6791;282043;-85
2021/12/19 10:13:31;;;;;;;214.17;19.57;;;6.50;54.60;;;;;;20720;6791;119853;-84
2021/12/19 10:16:29;;;;;;;129.47;19.30;;;6.50;54.00;;;;;;20492;6791;279902;-86
2021/12/19 10:19:06;;;;;;;33.40;16.67;;;6.60;52.70;;;;;;20473;6797;311333;-85
2021/12/19 10:21:44;;;;;;;24.00;15.53;;;6.80;51.60;;;;;;20679;6807;118134;-85
2021/12/19 10:24:36;;;;;;;24.83;18.70;;;6.70;51.70;;;;;;20594;6812;119765;-86
2021/12/19 10:27:10;;;;;;;30.50;19.37;;;6.50;52.40;;;;;;20685;6794;120183;-83
2021/12/19 10:29:47;;;;;;;47.03;17.23;;;6.20;52.90;;;;;;20650;6809;118293;-83
2021/12/19 10:32:25;;;;;;;24.47;18.77;;;6.10;53.20;;;;;;20474;6806;279758;-85
2021/12/19 10:35:15;;;;;;;33.13;17.93;;;6.20;52.40;;;;;;20347;6806;280964;-84
2021/12/19 10:37:54;;;;;;;86.10;30.67;;;6.60;51.80;;;;;;20729;6795;117683;-83
2021/12/19 10:40:31;;;;;;;24.08;19.42;;;6.50;51.40;;;;;;20479;6798;280920;-83
2021/12/19 10:43:15;;;;;;;119.07;21.37;;;6.50;51.40;;;;;;20474;6798;340304;-82
2021/12/19 10:45:49;;;;;;;26.57;17.33;;;6.80;50.50;;;;;;20509;6816;120745;-83
2021/12/19 10:48:30;;;;;;;22.03;16.17;;;6.70;50.70;;;;;;20677;6804;120060;-83
2021/12/19 10:51:15;;;;;;;28.40;14.57;;;6.50;51.40;;;;;;20694;6795;123706;-84
2021/12/19 10:53:55;;;;;;;32.17;13.93;;;6.30;51.90;;;;;;20650;6805;117731;-84
2021/12/19 10:56:37;;;;;;;45.43;16.70;;;6.10;52.20;;;;;;20444;6810;305258;-84
2021/12/19 10:59:16;;;;;;;21.43;14.30;;;6.30;51.70;;;;;;20692;6798;120337;-82
2021/12/19 11:01:52;;;;;;;23.23;14.63;;;6.30;51.60;;;;;;20715;6789;117838;-82
2021/12/19 11:04:32;;;;;;;26.07;15.17;;;6.20;52.00;;;;;;20666;6804;118205;-84
2021/12/19 11:07:07;;;;;;;31.00;14.70;;;6.10;52.40;;;;;;20642;6798;119487;-85
2021/12/19 11:09:44;;;;;;;27.40;13.43;;;5.90;52.40;;;;;;20750;6785;118371;-85
2021/12/19 11:12:22;;;;;;;37.27;13.27;;;5.90;52.70;;;;;;20734;6795;117616;-86
2021/12/19 11:15:00;;;;;;;25.10;12.60;;;5.70;52.80;;;;;;20611;6795;120507;-85
2021/12/19 11:17:38;;;;;;;36.97;12.37;;;5.70;53.10;;;;;;20722;6794;117830;-85
2021/12/19 11:20:15;;;;;;;24.23;12.23;;;5.60;53.20;;;;;;20756;6780;121439;-83
2021/12/19 11:22:53;;;;;;;30.80;12.60;;;5.60;53.40;;;;;;20729;6780;117537;-84
2021/12/19 11:25:30;;;;;;;23.37;12.90;;;5.60;53.50;;;;;;20609;6783;117958;-86
2021/12/19 11:28:07;;;;;;;24.90;15.75;;;5.90;53.10;;;;;;20495;6795;306546;-84
2021/12/19 11:30:45;;;;;;;20.13;13.00;;;5.80;53.00;;;;;;20694;6795;119487;-83
2021/12/19 11:33:36;;;;;;;30.43;13.57;;;6.00;52.70;;;;;;20674;6810;118494;-83
2021/12/19 11:36:14;;;;;;;32.37;14.83;;;5.90;52.80;;;;;;20486;6810;298338;-82
2021/12/19 11:38:51;;;;;;;19.97;13.50;;;6.20;52.30;;;;;;20703;6795;122086;-84
2021/12/19 11:41:31;;;;;;;14.67;11.77;;;6.30;52.00;;;;;;20720;6793;119072;-86
2021/12/19 11:44:09;;;;;;;19.50;15.67;;;6.20;52.20;;;;;;20444;6798;305347;-83
2021/12/19 11:46:54;;;;;;;22.27;12.37;;;6.40;51.60;;;;;;20622;6818;117643;-84
2021/12/19 11:49:31;;;;;;;22.53;11.67;;;6.40;51.50;;;;;;20685;6810;118504;-86
2021/12/19 11:52:25;;;;;;;20.07;11.77;;;6.30;51.70;;;;;;20685;6825;117184;-85
2021/12/19 11:55:17;;;;;;;15.07;10.90;;;6.10;51.90;;;;;;20295;6880;120738;-85
2021/12/19 11:58:22;;;;;;;16.93;12.87;;;5.90;52.20;;;;;;20540;6808;308509;-84
2021/12/19 12:00:51;;;;;;;28.73;13.00;;;6.20;52.00;;;;;;20470;6818;310960;-84
2021/12/19 12:03:29;;;;;;;22.23;11.10;;;6.70;51.00;;;;;;20706;6806;117662;-85
2021/12/19 12:06:20;;;;;;;32.40;10.97;;;6.70;50.80;;;;;;20418;6907;119447;-86
2021/12/19 12:09:20;;;;;;;16.43;10.50;;;6.50;51.00;;;;;;20676;6813;145958;-81
2021/12/19 12:12:07;;;;;;;17.53;10.67;;;6.30;51.40;;;;;;20669;6825;118918;-81
2021/12/19 12:14:51;;;;;;;12.13;9.87;;;6.00;51.80;;;;;;20594;6816;121586;-82
2021/12/19 12:17:31;;;;;;;24.87;12.47;;;5.90;52.10;;;;;;20494;6804;307870;-82
2021/12/19 12:20:13;;;;;;;19.43;10.60;;;6.20;51.80;;;;;;20605;6837;118143;-85
2021/12/19 12:22:51;;;;;;;17.30;13.57;;;6.30;51.60;;;;;;20356;6842;309405;-83
2021/12/19 12:25:31;;;;;;;45.43;12.00;;;6.50;51.10;;;;;;20508;6827;118227;-82
2021/12/19 12:28:09;;;;;;;17.97;12.37;;;6.50;50.80;;;;;;20457;6811;337900;-84
2021/12/19 12:30:47;;;;;;;18.00;11.43;;;6.70;50.60;;;;;;20630;6830;120843;-84
2021/12/19 12:33:25;;;;;;;17.30;10.97;;;6.60;50.50;;;;;;20676;6824;117006;-86
2021/12/19 12:36:03;;;;;;;17.37;10.50;;;6.40;50.90;;;;;;20462;6895;120319;-84
2021/12/19 12:38:43;;;;;;;15.73;12.73;;;6.20;51.30;;;;;;20472;6820;279255;-85
2021/12/19 12:44:15;;;;;;;21.40;13.27;;;6.80;50.50;;;;;;20375;6820;282574;-86
2021/12/19 12:46:53;;;;;;;22.67;14.53;;;7.10;49.50;;;;;;20422;6850;283934;-86
2021/12/19 12:49:34;;;;;;;17.50;13.27;;;7.30;49.10;;;;;;20470;6813;308684;-90
2021/12/19 12:52:10;;;;;;;16.63;12.47;;;7.50;48.80;;;;;;20652;6814;118826;-86
2021/12/19 12:54:44;;;;;;;17.93;11.23;;;7.30;49.10;;;;;;20597;6814;117651;-85
2021/12/19 16:23:19;;;;;;;31.77;14.30;;;6.20;53.70;;;;;;20641;6698;122336;-85
2021/12/19 16:25:55;;;;;;;50.50;16.87;;;6.10;53.70;;;;;;20498;6805;119731;-81
2021/12/19 16:28:32;;;;;;;36.40;15.43;;;6.00;53.90;;;;;;20736;6815;117755;-82
2021/12/19 16:31:07;;;;;;;38.42;16.92;;;5.80;54.10;;;;;;20472;6799;307875;-82
2021/12/19 16:33:46;;;;;;;30.80;14.33;;;6.00;54.10;;;;;;20728;6781;118847;-82
2021/12/19 16:36:20;;;;;;;35.93;14.30;;;6.10;53.80;;;;;;20747;6782;117282;-83
2021/12/19 16:38:54;;;;;;;52.67;15.00;;;6.00;53.90;;;;;;20690;6794;118225;-83
2021/12/19 16:41:42;;;;;;;58.70;14.90;;;5.90;54.30;;;;;;20740;6791;118068;-82
2021/12/19 16:44:06;;;;;;;56.87;14.40;;;5.60;54.20;;;;;;20653;6859;117603;-82
2021/12/19 16:46:42;;;;;;;88.20;15.80;;;5.60;54.20;;;;;;20742;6799;118215;-84
2021/12/19 16:49:17;;;;;;;145.67;17.17;;;5.50;54.30;;;;;;20681;6815;117731;-84
2021/12/19 16:51:53;;;;;;;32.80;13.73;;;5.20;54.40;;;;;;20776;6794;116870;-85
2021/12/19 16:54:35;;;;;;;23.90;12.03;;;5.20;54.30;;;;;;20687;6794;117090;-84
2021/12/19 16:57:05;;;;;;;10.10;9.10;;;5.10;54.60;;;;;;20750;6793;121242;-85
2021/12/19 16:59:40;;;;;;;16.33;10.90;;;5.00;54.70;;;;;;20550;6793;307419;-84
2021/12/19 17:02:16;;;;;;;19.90;11.47;;;5.20;55.00;;;;;;20559;6793;311845;-84
2021/12/19 17:04:51;;;;;;;45.20;10.10;;;5.70;54.30;;;;;;20677;6793;118026;-86
2021/12/19 17:07:27;;;;;;;25.93;8.93;;;5.70;53.70;;;;;;20700;6812;121397;-84
2021/12/19 17:10:06;;;;;;;76.53;11.97;;;5.50;54.00;;;;;;20706;6814;116862;-86
2021/12/19 17:12:39;;;;;;;36.97;14.83;;;5.40;54.50;;;;;;20478;6811;283638;-84
2021/12/19 17:15:14;;;;;;;22.73;10.35;;;5.60;54.00;;;;;;20441;6797;309040;-86
2021/12/19 17:17:49;;;;;;;12.20;10.93;;;6.00;53.20;;;;;;20706;6811;118155;-86
2021/12/19 17:20:28;;;;;;;11.83;10.80;;;5.90;52.80;;;;;;20601;6796;291534;-84
2021/12/19 17:23:00;;;;;;;11.83;10.77;;;6.00;53.20;;;;;;20741;6796;116644;-84
2021/12/19 17:25:36;;;;;;;10.20;9.30;;;6.00;53.10;;;;;;20595;6797;121143;-85
2021/12/19 17:28:11;;;;;;;9.33;8.53;;;5.70;52.90;;;;;;20746;6797;118102;-86
2021/12/19 17:30:50;;;;;;;10.57;9.60;;;5.40;53.60;;;;;;20505;6797;284042;-84
2021/12/19 17:33:23;;;;;;;12.20;11.07;;;5.60;53.90;;;;;;20521;6797;336408;-85
2021/12/19 17:35:58;;;;;;;11.70;9.90;;;6.00;52.70;;;;;;20331;6797;340291;-86
2021/12/19 17:38:37;;;;;;;11.63;9.07;;;6.40;52.10;;;;;;20753;6790;117327;-89
2021/12/19 17:41:10;;;;;;;13.87;12.53;;;6.30;51.80;;;;;;20680;6809;122841;-85
2021/12/19 17:43:46;;;;;;;12.25;10.32;;;5.90;52.40;;;;;;20516;6795;337002;-85
2021/12/19 17:46:20;;;;;;;9.60;8.23;;;6.00;52.10;;;;;;20765;6796;117758;-87
2021/12/19 17:48:56;;;;;;;10.87;9.87;;;5.90;52.00;;;;;;20443;6821;309314;-86